Time;durP1;ratioP1;P1;durP2;ratioP2;P2;SDS_P1;SDS_P2;PMS_P1;PMS_P2;Temp;Humidity;BMP_temperature;BMP_pressure;BME280_temperature;BME280_humidity;BME280_pressure;Samples;Min_cycle;Max_cycle;Signal;HPM_P1;HPM_P2
2022/03/12 00:02:12;;;;;;;7.93;4.85;;;9.50;46.40;;;;;;7316870;32;20186;-60
2022/03/12 00:06:15;;;;;;;7.78;4.53;;;9.40;46.50;;;;;;7310150;32;20174;-61
2022/03/12 00:10:21;;;;;;;8.73;4.97;;;9.40;46.50;;;;;;7310150;32;20782;-60
2022/03/12 00:14:23;;;;;;;7.57;4.18;;;9.40;47.00;;;;;;7307757;32;20144;-60
2022/03/12 00:18:30;;;;;;;11.57;5.00;;;9.40;46.40;;;;;;7306703;32;20215;-60
2022/03/12 00:22:32;;;;;;;7.47;4.53;;;9.30;47.10;;;;;;7310232;32;20254;-60
2022/03/12 00:26:38;;;;;;;11.88;4.57;;;9.30;46.80;;;;;;7312120;32;20794;-60
2022/03/12 00:30:42;;;;;;;8.35;4.00;;;9.40;46.90;;;;;;7307132;32;20165;-59
2022/03/12 00:34:43;;;;;;;9.40;4.10;;;9.30;46.80;;;;;;7309808;32;20539;-59
2022/03/12 00:38:46;;;;;;;9.68;4.82;;;9.20;46.70;;;;;;7313252;32;20135;-60
2022/03/12 00:42:48;;;;;;;7.57;4.70;;;9.20;47.50;;;;;;7315772;32;20217;-61
2022/03/12 00:46:50;;;;;;;10.70;4.82;;;9.20;47.90;;;;;;7308564;32;20209;-60
2022/03/12 00:50:53;;;;;;;8.48;4.50;;;9.10;47.40;;;;;;7316227;32;20129;-60
2022/03/12 00:54:55;;;;;;;12.30;4.40;;;9.20;47.20;;;;;;7312576;32;20893;-60
2022/03/12 00:58:58;;;;;;;10.65;5.03;;;9.20;47.60;;;;;;7314111;32;20134;-60
2022/03/12 01:03:01;;;;;;;7.62;5.45;;;9.10;47.90;;;;;;7310557;32;20104;-60
2022/03/12 01:07:03;;;;;;;7.55;5.10;;;9.10;48.30;;;;;;7314562;32;20137;-60
2022/03/12 01:11:08;;;;;;;11.63;5.32;;;9.10;48.30;;;;;;7314670;32;20130;-60
2022/03/12 01:15:11;;;;;;;8.23;4.47;;;9.10;48.00;;;;;;7313990;32;20203;-58
2022/03/12 01:19:14;;;;;;;8.32;5.30;;;9.10;48.20;;;;;;7310852;32;20138;-58
2022/03/12 01:23:17;;;;;;;14.00;4.68;;;9.20;48.10;;;;;;7311550;32;20722;-61
2022/03/12 01:27:19;;;;;;;7.47;5.15;;;9.10;48.50;;;;;;7312165;32;20116;-59
2022/03/12 01:31:22;;;;;;;9.57;5.82;;;9.00;49.40;;;;;;7309350;32;20646;-61
2022/03/12 01:35:24;;;;;;;10.23;4.57;;;9.00;49.50;;;;;;7311290;32;20154;-59
2022/03/12 01:39:27;;;;;;;9.32;5.15;;;9.00;49.30;;;;;;7309236;32;20119;-60
2022/03/12 01:43:34;;;;;;;8.82;4.53;;;8.90;49.50;;;;;;7311789;32;20107;-58
2022/03/12 01:47:36;;;;;;;7.32;4.60;;;8.80;49.40;;;;;;7308213;32;20704;-58
2022/03/12 01:51:40;;;;;;;8.68;4.95;;;8.80;49.60;;;;;;7308872;32;20978;-60
2022/03/12 01:55:57;;;;;;;10.15;5.05;;;8.80;49.60;;;;;;7312804;32;20495;-58
2022/03/12 01:59:58;;;;;;;8.90;4.95;;;8.80;50.00;;;;;;7312569;32;20830;-59
2022/03/12 02:04:01;;;;;;;8.27;4.87;;;8.80;49.90;;;;;;7311250;32;20427;-59
2022/03/12 02:08:03;;;;;;;11.73;4.82;;;8.80;50.20;;;;;;7312800;32;20657;-59
2022/03/12 02:12:05;;;;;;;11.90;4.90;;;8.80;50.40;;;;;;7311435;32;20138;-59
2022/03/12 02:16:08;;;;;;;8.18;5.37;;;8.80;49.90;;;;;;7305958;32;20830;-60
2022/03/12 02:20:10;;;;;;;8.23;4.85;;;8.80;50.30;;;;;;7311200;32;20202;-60
2022/03/12 02:24:15;;;;;;;9.25;5.25;;;8.80;50.10;;;;;;7306538;32;20524;-59
2022/03/12 02:28:26;;;;;;;8.00;5.10;;;8.80;50.40;;;;;;7307508;32;20157;-60
2022/03/12 02:32:28;;;;;;;10.38;5.60;;;8.80;50.50;;;;;;7305135;32;20207;-59
2022/03/12 02:36:30;;;;;;;10.25;4.78;;;8.80;50.30;;;;;;7302650;32;20207;-58
2022/03/12 02:40:32;;;;;;;8.23;4.97;;;8.80;50.40;;;;;;7311925;32;20159;-58
2022/03/12 02:44:34;;;;;;;8.25;5.15;;;8.90;50.80;;;;;;7301465;32;20108;-58
2022/03/12 02:48:37;;;;;;;11.73;5.78;;;8.80;50.80;;;;;;7305872;32;20129;-59
2022/03/12 02:52:41;;;;;;;10.68;5.37;;;8.80;51.00;;;;;;7309374;32;20191;-60
2022/03/12 02:56:43;;;;;;;8.13;5.40;;;8.70;51.50;;;;;;7307588;32;20141;-58
2022/03/12 03:00:44;;;;;;;8.50;5.15;;;8.70;51.80;;;;;;7307787;32;20594;-59
2022/03/12 03:04:46;;;;;;;7.78;5.05;;;8.70;51.50;;;;;;7304708;32;20284;-59
2022/03/12 03:08:48;;;;;;;9.48;5.12;;;8.50;52.00;;;;;;7302996;32;20746;-59
2022/03/12 03:12:50;;;;;;;10.30;5.47;;;8.50;52.20;;;;;;7302480;32;20176;-60
2022/03/12 03:16:53;;;;;;;8.52;5.85;;;8.40;52.10;;;;;;7304574;32;20138;-59
2022/03/12 03:20:58;;;;;;;7.70;5.10;;;8.50;52.70;;;;;;7317627;32;20210;-59
2022/03/12 03:25:00;;;;;;;9.20;5.80;;;8.30;53.10;;;;;;7310402;32;20146;-60
2022/03/12 03:29:02;;;;;;;10.27;5.32;;;8.30;53.10;;;;;;7314781;32;20905;-59
2022/03/12 03:33:10;;;;;;;8.30;5.32;;;8.30;53.20;;;;;;7317685;32;20112;-59
2022/03/12 03:37:11;;;;;;;11.80;6.03;;;8.30;53.90;;;;;;7313457;32;20602;-58
2022/03/12 03:41:14;;;;;;;11.10;5.35;;;8.30;53.50;;;;;;7317900;32;20115;-59
2022/03/12 03:45:27;;;;;;;11.12;5.35;;;8.30;53.70;;;;;;7311952;32;20134;-60
2022/03/12 03:49:29;;;;;;;8.55;5.40;;;8.30;54.00;;;;;;7318388;32;20180;-58
2022/03/12 03:53:30;;;;;;;11.43;5.45;;;8.30;55.20;;;;;;7309595;32;20126;-59
2022/03/12 03:57:32;;;;;;;8.40;5.93;;;8.30;55.00;;;;;;7319047;32;20257;-60
2022/03/12 04:01:40;;;;;;;8.38;5.72;;;8.40;55.10;;;;;;7315436;32;20134;-59
2022/03/12 04:05:42;;;;;;;11.40;5.53;;;8.40;55.40;;;;;;7302227;32;20207;-60
2022/03/12 04:09:44;;;;;;;9.70;5.85;;;8.40;56.20;;;;;;7313699;32;20111;-60
2022/03/12 04:13:47;;;;;;;10.70;5.45;;;8.40;56.30;;;;;;7311645;32;20774;-59
2022/03/12 04:17:51;;;;;;;10.93;5.50;;;8.40;56.60;;;;;;7314749;32;20179;-59
2022/03/12 04:21:54;;;;;;;7.90;5.12;;;8.40;57.50;;;;;;7310118;32;20983;-59
2022/03/12 04:25:57;;;;;;;10.30;5.87;;;8.40;57.60;;;;;;7316792;32;20107;-60
2022/03/12 05:05:53;;;;;;;12.15;5.65;;;8.30;59.00;;;;;;7314165;32;20589;-58
2022/03/12 05:09:56;;;;;;;8.68;5.60;;;8.20;59.10;;;;;;7312587;32;20303;-59
2022/03/12 05:13:58;;;;;;;10.75;6.03;;;8.20;59.80;;;;;;7316303;32;20264;-59
2022/03/12 05:18:01;;;;;;;14.00;6.30;;;8.10;60.30;;;;;;7308089;32;20107;-59
2022/03/12 05:22:04;;;;;;;10.48;5.90;;;8.10;60.70;;;;;;7315176;32;20133;-59
2022/03/12 05:26:06;;;;;;;10.07;5.30;;;8.00;61.80;;;;;;7317352;32;20134;-59
2022/03/12 05:30:18;;;;;;;12.90;6.37;;;8.00;62.00;;;;;;7313715;32;20541;-59
2022/03/12 05:34:25;;;;;;;11.10;6.28;;;8.00;63.00;;;;;;7310526;32;20787;-59
2022/03/12 05:38:33;;;;;;;10.48;6.00;;;7.80;64.10;;;;;;7314445;32;20217;-60
2022/03/12 05:42:35;;;;;;;11.75;6.40;;;7.80;64.10;;;;;;7309949;32;20301;-59
2022/03/12 05:46:37;;;;;;;10.07;6.00;;;7.70;65.20;;;;;;7308101;32;20171;-61
2022/03/12 05:50:40;;;;;;;10.65;5.45;;;7.70;65.80;;;;;;7314152;32;20217;-58
2022/03/12 05:54:46;;;;;;;13.38;6.18;;;7.70;66.30;;;;;;7313289;32;20206;-59
2022/03/12 05:58:48;;;;;;;12.93;5.85;;;7.60;67.40;;;;;;7306391;32;20687;-58
2022/03/12 06:02:51;;;;;;;11.65;5.68;;;7.60;68.70;;;;;;7310157;32;20239;-58
2022/03/12 06:06:54;;;;;;;11.12;6.35;;;7.60;69.50;;;;;;7312508;32;20131;-61
2022/03/12 06:10:56;;;;;;;11.15;6.18;;;7.50;71.10;;;;;;7304917;32;20147;-61
2022/03/12 06:15:04;;;;;;;10.07;5.90;;;7.50;73.00;;;;;;7312352;32;20199;-61
2022/03/12 06:19:07;;;;;;;10.60;6.40;;;7.40;75.00;;;;;;7316036;32;20199;-61
2022/03/12 06:23:09;;;;;;;9.57;5.93;;;7.40;77.00;;;;;;7311300;32;20207;-61
2022/03/12 06:27:11;;;;;;;10.90;5.55;;;7.50;77.70;;;;;;7309645;32;20157;-61
2022/03/12 06:31:14;;;;;;;8.57;5.53;;;7.50;81.80;;;;;;7304472;32;20166;-61
2022/03/12 06:35:16;;;;;;;11.02;5.97;;;7.50;83.30;;;;;;7311082;32;20207;-60
2022/03/12 06:39:18;;;;;;;12.05;6.15;;;7.50;86.90;;;;;;7311952;32;20103;-59
2022/03/12 06:43:20;;;;;;;8.13;5.45;;;7.60;88.70;;;;;;7313857;32;20199;-59
2022/03/12 06:47:29;;;;;;;11.20;6.10;;;7.70;90.80;;;;;;7302855;32;20219;-59
2022/03/12 06:51:32;;;;;;;10.82;5.60;;;7.70;92.30;;;;;;7315231;32;20183;-59
2022/03/12 06:55:34;;;;;;;12.23;6.20;;;7.90;93.90;;;;;;7313053;32;20115;-59
2022/03/12 06:59:36;;;;;;;11.65;5.90;;;8.00;95.70;;;;;;7309376;32;20773;-60
2022/03/12 07:03:38;;;;;;;9.38;6.18;;;8.10;96.10;;;;;;7308345;32;20307;-59
2022/03/12 07:07:40;;;;;;;11.68;6.40;;;8.20;97.60;;;;;;7313991;32;20103;-59
2022/03/12 07:11:43;;;;;;;11.05;5.93;;;8.30;99.00;;;;;;7316755;32;20595;-59
2022/03/12 07:15:45;;;;;;;12.57;6.30;;;8.40;99.90;;;;;;7315987;32;20108;-58
2022/03/12 07:19:47;;;;;;;11.88;6.50;;;8.40;99.90;;;;;;7318454;32;20103;-59
2022/03/12 07:23:49;;;;;;;11.07;6.72;;;8.50;99.90;;;;;;7319045;32;20142;-59
2022/03/12 07:27:52;;;;;;;11.65;6.00;;;8.50;99.90;;;;;;7314681;32;20643;-59
2022/03/12 07:31:55;;;;;;;9.48;5.75;;;8.70;99.90;;;;;;7316978;32;20108;-59
2022/03/12 07:35:56;;;;;;;11.88;6.22;;;8.90;99.90;;;;;;7314285;32;20111;-61
2022/03/12 07:39:58;;;;;;;9.93;6.15;;;9.10;99.90;;;;;;7308621;32;20166;-61
2022/03/12 07:44:00;;;;;;;9.85;5.75;;;9.20;99.90;;;;;;7315248;32;20202;-61
2022/03/12 07:48:02;;;;;;;11.38;5.90;;;9.40;99.90;;;;;;7313941;32;20108;-59
2022/03/12 07:52:22;;;;;;;8.25;5.32;;;9.60;99.90;;;;;;7312835;32;20541;-59
2022/03/12 07:56:23;;;;;;;8.85;5.75;;;9.70;99.90;;;;;;7316602;32;20119;-60
2022/03/12 08:00:28;;;;;;;9.82;6.05;;;9.90;99.90;;;;;;7311515;32;20199;-59
2022/03/12 08:04:33;;;;;;;7.95;5.40;;;10.00;99.90;;;;;;7306009;32;20644;-60
2022/03/12 08:08:35;;;;;;;9.38;6.18;;;10.30;99.90;;;;;;7312627;32;20638;-57
2022/03/12 08:12:39;;;;;;;14.40;5.90;;;10.40;99.90;;;;;;7317183;32;20152;-58
2022/03/12 08:16:41;;;;;;;8.40;5.75;;;10.50;99.90;;;;;;7308651;32;20231;-58
2022/03/12 08:20:44;;;;;;;10.77;5.72;;;10.60;99.90;;;;;;7315937;32;20116;-59
2022/03/12 08:24:46;;;;;;;11.80;6.25;;;10.60;99.90;;;;;;7315040;32;20107;-59
2022/03/12 08:28:48;;;;;;;12.02;6.20;;;10.60;99.90;;;;;;7313135;32;20321;-59
2022/03/12 08:32:50;;;;;;;7.68;5.68;;;10.50;99.90;;;;;;7306074;32;20128;-59
2022/03/12 08:36:52;;;;;;;8.65;5.55;;;10.70;99.90;;;;;;7313796;32;20111;-60
2022/03/12 08:40:54;;;;;;;13.27;5.57;;;10.80;99.90;;;;;;7315067;32;20202;-58
2022/03/12 08:44:56;;;;;;;8.48;6.10;;;10.90;99.90;;;;;;7312593;32;20111;-58
2022/03/12 08:48:58;;;;;;;8.52;5.62;;;11.10;99.90;;;;;;7314473;32;20135;-60
2022/03/12 08:53:00;;;;;;;10.05;6.12;;;11.70;99.90;;;;;;7316120;32;20150;-58
2022/03/12 08:57:02;;;;;;;11.23;6.30;;;12.20;99.90;;;;;;7315590;32;20212;-58
2022/03/12 09:01:06;;;;;;;8.23;5.57;;;13.00;99.90;;;;;;7311307;32;20334;-59
2022/03/12 09:05:12;;;;;;;9.73;6.12;;;13.20;99.90;;;;;;7308008;32;20134;-60
2022/03/12 09:09:14;;;;;;;10.00;5.82;;;13.80;99.40;;;;;;7307972;32;20337;-58
2022/03/12 09:13:16;;;;;;;8.95;6.03;;;14.10;96.30;;;;;;7307400;32;20311;-58
2022/03/12 09:17:18;;;;;;;12.00;6.53;;;13.80;96.10;;;;;;7313593;32;20178;-60
2022/03/12 09:21:20;;;;;;;15.43;6.82;;;13.80;96.80;;;;;;7309919;32;20350;-59
2022/03/12 09:25:21;;;;;;;14.73;6.60;;;13.50;97.60;;;;;;7310274;32;20153;-59
2022/03/12 09:29:23;;;;;;;9.43;6.30;;;13.60;97.10;;;;;;7315064;32;20169;-59
2022/03/12 09:33:25;;;;;;;12.37;6.75;;;14.10;96.30;;;;;;7291254;32;20186;-59
2022/03/12 09:37:26;;;;;;;9.73;6.18;;;13.90;97.10;;;;;;7318219;32;20116;-60
2022/03/12 09:41:40;;;;;;;9.45;6.07;;;14.30;97.50;;;;;;7302454;32;20504;-59
2022/03/12 09:45:49;;;;;;;10.40;6.47;;;14.40;94.80;;;;;;7319373;32;20222;-60
2022/03/12 09:49:53;;;;;;;9.60;6.80;;;14.00;97.00;;;;;;7319396;32;20108;-61
2022/03/12 09:53:55;;;;;;;9.30;7.10;;;13.50;98.50;;;;;;7311610;32;20148;-61
2022/03/12 09:57:57;;;;;;;11.70;7.00;;;13.10;99.90;;;;;;7320090;32;20111;-61
2022/03/12 10:02:00;;;;;;;11.45;6.55;;;13.80;99.90;;;;;;7319183;32;20184;-60
2022/03/12 10:06:02;;;;;;;14.57;7.62;;;14.40;96.90;;;;;;7318124;32;20491;-61
2022/03/12 10:10:04;;;;;;;10.07;6.47;;;14.10;97.30;;;;;;7309939;32;20134;-60
2022/03/12 10:14:06;;;;;;;12.37;7.57;;;13.90;98.70;;;;;;7324043;32;20126;-60
2022/03/12 10:18:07;;;;;;;9.20;7.18;;;14.00;97.70;;;;;;7310519;32;20463;-60
2022/03/12 10:22:09;;;;;;;10.05;6.22;;;14.00;98.30;;;;;;7318993;32;20108;-59
2022/03/12 10:26:11;;;;;;;9.85;6.55;;;13.70;99.90;;;;;;7315191;32;20158;-61
2022/03/12 10:30:13;;;;;;;9.20;5.97;;;14.90;99.90;;;;;;7305867;32;20203;-61
2022/03/12 10:34:17;;;;;;;8.07;4.97;;;16.80;94.10;;;;;;7313045;32;20146;-61
2022/03/12 10:38:22;;;;;;;6.85;5.07;;;18.70;88.10;;;;;;7314146;32;20153;-59
2022/03/12 10:42:24;;;;;;;11.10;5.05;;;18.80;82.60;;;;;;7317972;32;20126;-60
2022/03/12 10:46:28;;;;;;;6.15;4.72;;;18.60;81.50;;;;;;7305564;32;20299;-60
2022/03/12 10:50:42;;;;;;;5.55;3.85;;;18.90;80.80;;;;;;7312116;32;20838;-62
2022/03/12 10:54:43;;;;;;;6.30;3.80;;;18.30;80.40;;;;;;7309348;32;20811;-59
2022/03/12 10:58:45;;;;;;;6.50;3.72;;;17.00;84.80;;;;;;7311130;32;20107;-60
2022/03/12 11:02:58;;;;;;;7.70;3.92;;;16.20;90.80;;;;;;7312484;32;20150;-58
2022/03/12 11:07:27;;;;;;;8.50;4.00;;;15.70;92.40;;;;;;7313871;32;20255;-59
2022/03/12 11:11:29;;;;;;;;;;;15.60;93.20;;;;;;7312695;32;20198;-58
2022/03/12 11:15:32;;;;;;;6.82;3.97;;;15.60;93.40;;;;;;7310083;32;20133;-57
2022/03/12 11:19:42;;;;;;;6.32;3.85;;;15.50;95.20;;;;;;7311599;32;20272;-58
2022/03/12 11:23:43;;;;;;;6.87;3.83;;;15.50;95.30;;;;;;7308063;32;20550;-58
2022/03/12 11:27:49;;;;;;;6.57;3.67;;;15.30;95.60;;;;;;7305827;32;20150;-59
2022/03/12 11:31:58;;;;;;;5.93;3.70;;;15.30;96.10;;;;;;7307340;32;20929;-59
2022/03/12 11:36:09;;;;;;;7.12;3.42;;;14.70;96.50;;;;;;7317127;32;20142;-58
2022/03/12 11:40:19;;;;;;;5.43;3.50;;;15.00;96.80;;;;;;7313604;32;20613;-59
2022/03/12 11:44:20;;;;;;;6.07;3.15;;;14.90;96.60;;;;;;7308342;32;20805;-59
2022/03/12 11:48:23;;;;;;;5.15;3.35;;;15.20;96.50;;;;;;7310508;32;21038;-59
2022/03/12 11:52:24;;;;;;;4.57;3.08;;;15.30;95.80;;;;;;7311073;32;22011;-61
2022/03/12 11:56:27;;;;;;;5.85;3.20;;;15.00;95.70;;;;;;7315752;32;20591;-59
2022/03/12 12:00:29;;;;;;;5.60;2.33;;;15.10;96.30;;;;;;7319468;32;20118;-59
2022/03/12 12:04:32;;;;;;;4.75;2.60;;;15.20;96.30;;;;;;7314761;32;20194;-61
2022/03/12 12:08:35;;;;;;;7.43;2.50;;;15.30;96.50;;;;;;7309796;32;20531;-59
2022/03/12 12:12:38;;;;;;;3.75;2.60;;;15.30;95.90;;;;;;7302927;32;20184;-59
2022/03/12 12:16:42;;;;;;;7.35;2.53;;;15.40;95.40;;;;;;7322926;32;20120;-59
2022/03/12 12:20:44;;;;;;;3.70;2.10;;;15.20;95.00;;;;;;7316285;32;20191;-59
2022/03/12 12:24:46;;;;;;;3.03;2.00;;;15.20;95.30;;;;;;7295515;32;20778;-59
2022/03/12 12:28:51;;;;;;;4.05;2.17;;;15.30;95.90;;;;;;7303299;32;20119;-62
2022/03/12 12:32:53;;;;;;;4.57;2.47;;;15.40;95.70;;;;;;7309818;32;20240;-59
2022/03/12 12:36:59;;;;;;;8.38;3.05;;;15.40;95.30;;;;;;7312026;32;20225;-59
2022/03/12 12:41:03;;;;;;;5.95;3.05;;;15.30;95.50;;;;;;7310790;32;20112;-59
2022/03/12 12:45:10;;;;;;;4.72;2.92;;;15.50;94.00;;;;;;7314462;32;20192;-60
2022/03/12 12:49:14;;;;;;;4.57;2.75;;;15.80;94.30;;;;;;7313636;32;20138;-59
2022/03/12 12:53:30;;;;;;;5.43;2.45;;;15.70;94.40;;;;;;7306981;32;20344;-60
2022/03/12 12:57:44;;;;;;;4.68;2.78;;;15.60;94.60;;;;;;7306673;32;20112;-61
2022/03/12 13:01:49;;;;;;;4.12;2.70;;;15.40;95.10;;;;;;7310438;32;20128;-62
2022/03/12 13:06:01;;;;;;;4.72;3.22;;;15.40;95.80;;;;;;7314096;32;20161;-58
2022/03/12 13:10:03;;;;;;;5.37;2.92;;;15.30;94.40;;;;;;7309104;32;20143;-60
2022/03/12 13:14:10;;;;;;;7.55;3.08;;;15.10;95.30;;;;;;7310652;32;20549;-58
2022/03/12 13:18:20;;;;;;;5.78;3.60;;;15.10;96.20;;;;;;7309985;32;21073;-58
2022/03/12 13:22:22;;;;;;;5.62;3.08;;;15.20;95.10;;;;;;7307698;32;20104;-59
2022/03/12 13:26:26;;;;;;;6.20;3.30;;;15.30;95.20;;;;;;7312007;32;20843;-59
2022/03/12 13:30:34;;;;;;;4.35;3.42;;;15.10;94.60;;;;;;7285061;32;20271;-58
2022/03/12 13:34:36;;;;;;;6.12;3.40;;;15.00;94.60;;;;;;7316442;32;20140;-58
2022/03/12 13:38:38;;;;;;;6.45;3.67;;;14.80;95.10;;;;;;7313924;32;20201;-58
2022/03/12 13:42:48;;;;;;;5.65;2.87;;;15.00;96.00;;;;;;7307994;32;20153;-59
2022/03/12 13:46:50;;;;;;;4.95;3.15;;;15.20;95.00;;;;;;7311606;32;20522;-58
2022/03/12 13:50:59;;;;;;;8.70;3.15;;;15.30;93.70;;;;;;7308112;32;20158;-58
2022/03/12 13:55:04;;;;;;;5.43;3.37;;;15.20;93.20;;;;;;7310309;32;20596;-60
2022/03/12 13:59:12;;;;;;;5.37;3.47;;;15.20;94.20;;;;;;7313914;32;20147;-59
2022/03/12 14:03:15;;;;;;;7.45;2.37;;;15.20;94.10;;;;;;7311792;32;20129;-59
2022/03/12 14:07:19;;;;;;;4.78;3.17;;;15.20;94.00;;;;;;7312628;32;20115;-59
2022/03/12 14:11:36;;;;;;;4.35;2.75;;;15.20;93.80;;;;;;7310292;32;20124;-59
2022/03/12 14:15:40;;;;;;;5.93;3.05;;;14.90;94.70;;;;;;7307926;32;20112;-59
2022/03/12 14:19:44;;;;;;;6.32;2.40;;;15.10;93.70;;;;;;7307443;32;20580;-60
2022/03/12 14:23:45;;;;;;;4.30;2.33;;;15.30;93.20;;;;;;7303662;32;20123;-59
2022/03/12 14:27:49;;;;;;;5.20;2.22;;;15.40;92.70;;;;;;7309762;32;20130;-58
2022/03/12 14:31:53;;;;;;;5.57;2.40;;;15.50;92.40;;;;;;7314502;32;20104;-60
2022/03/12 14:36:04;;;;;;;3.25;1.92;;;15.50;92.70;;;;;;7311873;32;20660;-58
2022/03/12 14:40:07;;;;;;;4.35;2.50;;;15.40;91.90;;;;;;7312986;32;20119;-58
2022/03/12 14:44:11;;;;;;;5.25;3.58;;;15.60;91.50;;;;;;7310757;32;20783;-59
2022/03/12 14:48:15;;;;;;;3.92;2.40;;;15.70;92.70;;;;;;7300353;32;20482;-59
2022/03/12 14:52:26;;;;;;;4.22;2.20;;;15.90;91.30;;;;;;7314211;32;20864;-59
2022/03/12 14:56:28;;;;;;;4.10;2.40;;;16.10;91.70;;;;;;7308382;32;20169;-59
2022/03/12 15:00:30;;;;;;;5.50;3.80;;;16.20;91.00;;;;;;7306836;32;20115;-60
2022/03/12 15:04:34;;;;;;;6.40;3.47;;;16.30;89.20;;;;;;7300679;32;20124;-59
2022/03/12 15:08:40;;;;;;;7.20;4.53;;;16.00;91.00;;;;;;7309565;32;20112;-59
2022/03/12 15:12:43;;;;;;;6.15;3.83;;;15.80;90.60;;;;;;7308253;32;20183;-59
2022/03/12 15:16:48;;;;;;;5.28;3.78;;;15.70;90.70;;;;;;7314716;32;20176;-59
2022/03/12 15:20:52;;;;;;;6.82;3.40;;;15.80;90.90;;;;;;7309081;32;20183;-59
2022/03/12 15:24:58;;;;;;;7.97;3.80;;;15.40;91.10;;;;;;7317824;32;20543;-60
2022/03/12 15:28:59;;;;;;;9.02;5.87;;;15.20;91.50;;;;;;7314776;32;20465;-60
2022/03/12 15:33:03;;;;;;;6.80;4.40;;;15.20;91.80;;;;;;7312641;32;20167;-60
2022/03/12 15:37:05;;;;;;;4.95;3.47;;;15.10;92.20;;;;;;7324524;32;20254;-59
2022/03/12 15:41:07;;;;;;;6.10;3.90;;;14.90;91.90;;;;;;7312813;32;20103;-61
2022/03/12 15:45:12;;;;;;;4.95;3.58;;;14.60;92.80;;;;;;7315142;32;20143;-61
2022/03/12 15:49:13;;;;;;;6.18;3.72;;;14.60;93.30;;;;;;7309657;32;20491;-60
2022/03/12 15:53:16;;;;;;;6.20;4.40;;;14.30;93.70;;;;;;7312716;32;20173;-60
2022/03/12 15:57:18;;;;;;;4.95;3.65;;;14.30;94.30;;;;;;7312894;32;20624;-59
2022/03/12 16:01:20;;;;;;;6.60;3.85;;;14.10;94.10;;;;;;7320198;32;20215;-61
2022/03/12 16:05:25;;;;;;;6.07;3.87;;;14.10;94.90;;;;;;7313842;32;20539;-60
2022/03/12 16:09:27;;;;;;;6.97;4.00;;;14.10;95.10;;;;;;7317168;32;20141;-60
2022/03/12 16:13:29;;;;;;;9.30;3.70;;;14.00;95.40;;;;;;7322240;32;20157;-59
2022/03/12 16:17:32;;;;;;;6.30;3.35;;;13.90;95.50;;;;;;7309888;32;20103;-59
2022/03/12 16:21:36;;;;;;;5.82;4.12;;;13.80;95.70;;;;;;7314008;32;20203;-59
2022/03/12 16:25:37;;;;;;;8.02;3.95;;;13.70;96.20;;;;;;7308790;32;20274;-60
2022/03/12 16:29:41;;;;;;;8.02;3.53;;;13.50;96.80;;;;;;7310294;32;20104;-60
2022/03/12 16:33:43;;;;;;;7.45;3.90;;;13.40;97.30;;;;;;7303186;32;20108;-59
2022/03/12 16:37:46;;;;;;;5.72;3.78;;;13.40;97.60;;;;;;7306884;32;20202;-60
2022/03/12 16:41:49;;;;;;;5.80;3.40;;;13.20;97.90;;;;;;7308794;32;20153;-61
2022/03/12 16:45:52;;;;;;;7.85;3.60;;;13.20;98.30;;;;;;7307013;32;20858;-59
2022/03/12 16:49:54;;;;;;;5.20;3.58;;;13.10;98.30;;;;;;7311502;32;20252;-59
2022/03/12 16:53:57;;;;;;;5.78;3.30;;;13.10;99.30;;;;;;7306440;32;20127;-60
2022/03/12 16:57:59;;;;;;;6.25;4.05;;;13.00;99.80;;;;;;7311899;32;20352;-59
2022/03/12 17:02:02;;;;;;;7.93;3.83;;;12.90;99.20;;;;;;7313083;32;20114;-58
2022/03/12 17:06:18;;;;;;;7.90;4.93;;;12.80;99.90;;;;;;7309040;32;20266;-59
2022/03/12 17:10:21;;;;;;;7.10;4.78;;;12.70;99.30;;;;;;7310293;32;20127;-61
2022/03/12 17:14:23;;;;;;;8.68;5.30;;;12.50;99.40;;;;;;7312118;32;20115;-59
2022/03/12 17:18:25;;;;;;;8.80;5.28;;;12.40;99.20;;;;;;7313978;32;20206;-59
2022/03/12 17:22:27;;;;;;;8.25;5.20;;;12.20;99.60;;;;;;7316276;32;20112;-61
2022/03/12 17:26:30;;;;;;;10.13;5.12;;;12.00;99.90;;;;;;7310783;32;20205;-61
2022/03/12 17:30:34;;;;;;;10.40;5.10;;;11.90;99.90;;;;;;7314223;32;20144;-59
2022/03/12 17:34:35;;;;;;;8.50;4.57;;;11.90;99.90;;;;;;7307773;32;20224;-60
2022/03/12 17:38:37;;;;;;;9.20;5.30;;;11.60;99.90;;;;;;7310913;32;20115;-59
2022/03/12 17:42:39;;;;;;;9.02;5.15;;;11.50;99.90;;;;;;7311080;32;20148;-59
2022/03/12 17:46:42;;;;;;;10.27;4.90;;;11.40;99.90;;;;;;7314146;32;20756;-60
2022/03/12 17:50:44;;;;;;;8.68;5.15;;;11.20;99.90;;;;;;7313963;32;20590;-59
2022/03/12 17:54:47;;;;;;;9.00;5.22;;;11.00;99.90;;;;;;7309232;32;20245;-60
2022/03/12 17:58:52;;;;;;;8.00;5.40;;;10.80;99.90;;;;;;7308856;32;20235;-60
2022/03/12 18:02:55;;;;;;;9.13;5.62;;;10.70;99.90;;;;;;7309773;32;20210;-58
2022/03/12 18:06:58;;;;;;;10.40;5.95;;;10.50;99.90;;;;;;7312738;32;20541;-60
2022/03/12 18:11:01;;;;;;;10.55;6.53;;;10.50;99.90;;;;;;7313933;32;20931;-59
2022/03/12 18:15:04;;;;;;;8.35;6.10;;;10.50;99.90;;;;;;7314449;32;20511;-60
2022/03/12 18:19:06;;;;;;;10.65;6.80;;;10.50;99.90;;;;;;7313932;32;20512;-59
2022/03/12 18:23:07;;;;;;;11.60;7.57;;;10.50;99.90;;;;;;7305452;32;20130;-59
2022/03/12 18:27:12;;;;;;;11.77;7.43;;;10.50;99.90;;;;;;7310229;32;20212;-59
2022/03/12 18:31:17;;;;;;;9.10;6.70;;;10.70;99.90;;;;;;7306651;32;20207;-59
2022/03/12 18:35:19;;;;;;;13.88;7.50;;;10.60;99.90;;;;;;7308275;32;20107;-59
2022/03/12 18:39:21;;;;;;;13.80;7.50;;;10.70;99.90;;;;;;7310211;32;20143;-59
2022/03/12 18:43:23;;;;;;;10.98;6.90;;;10.60;99.90;;;;;;7305145;32;20127;-62
2022/03/12 18:47:25;;;;;;;14.57;7.37;;;10.60;99.90;;;;;;7315755;32;20327;-59
2022/03/12 18:51:27;;;;;;;11.30;8.00;;;10.50;99.90;;;;;;7313897;32;20732;-59
2022/03/12 18:55:30;;;;;;;12.18;7.25;;;10.40;99.90;;;;;;7310248;32;20149;-58
2022/03/12 18:59:32;;;;;;;13.77;7.75;;;10.40;99.90;;;;;;7314396;32;20510;-58
2022/03/12 19:03:34;;;;;;;12.68;8.00;;;10.30;99.90;;;;;;7312237;32;20314;-61
2022/03/12 19:07:36;;;;;;;11.25;6.80;;;10.20;99.90;;;;;;7320174;32;20134;-60
2022/03/12 19:11:38;;;;;;;12.35;7.37;;;10.00;99.90;;;;;;7314830;32;20606;-62
2022/03/12 19:15:43;;;;;;;11.00;7.28;;;9.90;99.90;;;;;;7317384;32;20130;-60
2022/03/12 19:19:45;;;;;;;10.25;7.32;;;10.00;99.90;;;;;;7315788;32;20230;-60
2022/03/12 19:23:47;;;;;;;17.33;8.02;;;9.80;99.90;;;;;;7316423;32;20776;-60
2022/03/12 19:27:49;;;;;;;15.68;8.30;;;9.80;99.90;;;;;;7313713;32;20363;-60
2022/03/12 19:31:51;;;;;;;11.18;7.32;;;9.70;99.90;;;;;;7315558;32;20130;-61
2022/03/12 19:35:53;;;;;;;13.60;8.00;;;9.70;99.90;;;;;;7315799;32;20567;-58
2022/03/12 19:39:56;;;;;;;10.82;6.87;;;9.70;99.90;;;;;;7308723;32;20784;-58
2022/03/12 19:43:57;;;;;;;14.02;7.60;;;9.50;99.90;;;;;;7314305;32;20133;-59
2022/03/12 19:48:00;;;;;;;14.40;7.32;;;9.40;99.90;;;;;;7312707;32;20113;-59
2022/03/12 19:52:01;;;;;;;11.05;7.03;;;9.40;99.90;;;;;;7315076;32;20637;-59
2022/03/12 19:56:03;;;;;;;11.38;8.38;;;9.40;99.90;;;;;;7317788;32;20134;-59
2022/03/12 20:00:06;;;;;;;10.05;6.65;;;9.40;99.90;;;;;;7315588;32;20216;-59
2022/03/12 20:04:10;;;;;;;9.57;7.03;;;9.30;99.90;;;;;;7314394;32;20204;-60
2022/03/12 20:08:12;;;;;;;11.88;7.25;;;9.30;99.90;;;;;;7321459;32;20511;-60
2022/03/12 20:12:16;;;;;;;12.23;7.07;;;9.30;99.90;;;;;;7313804;32;20141;-59
2022/03/12 20:16:17;;;;;;;11.75;6.75;;;9.40;99.90;;;;;;7317251;32;20107;-59
2022/03/12 20:20:19;;;;;;;12.93;7.10;;;9.40;99.90;;;;;;7317560;32;20180;-60
2022/03/12 20:24:21;;;;;;;9.80;6.60;;;9.50;99.90;;;;;;7317341;32;20218;-58
2022/03/12 20:28:26;;;;;;;12.05;7.00;;;9.50;99.90;;;;;;7307763;32;20112;-60
2022/03/12 20:32:28;;;;;;;9.88;6.57;;;9.50;99.90;;;;;;7312479;32;20129;-60
2022/03/12 20:36:31;;;;;;;10.82;6.50;;;9.40;99.90;;;;;;7315847;32;20734;-60
2022/03/12 20:40:32;;;;;;;11.88;6.85;;;9.40;99.90;;;;;;7306768;32;20111;-60
2022/03/12 20:44:34;;;;;;;11.18;6.78;;;9.30;99.90;;;;;;7314882;32;20632;-59
2022/03/12 20:48:37;;;;;;;9.27;6.45;;;9.30;99.90;;;;;;7314372;32;20462;-61
2022/03/12 20:52:39;;;;;;;11.35;6.70;;;9.30;99.90;;;;;;7323374;32;20532;-60
2022/03/12 20:56:40;;;;;;;10.88;6.70;;;9.30;99.90;;;;;;7307180;32;20108;-60
2022/03/12 21:00:44;;;;;;;11.93;6.45;;;9.20;99.90;;;;;;7322232;32;20166;-60
2022/03/12 21:04:46;;;;;;;8.45;6.07;;;9.10;99.90;;;;;;7311463;32;20195;-62
2022/03/12 21:08:48;;;;;;;10.63;6.90;;;9.10;99.90;;;;;;7313843;32;20132;-62
2022/03/12 21:12:53;;;;;;;11.98;6.62;;;9.00;99.90;;;;;;7312866;32;20100;-61
2022/03/12 21:16:55;;;;;;;10.40;6.72;;;9.10;99.90;;;;;;7314158;32;20304;-60
2022/03/12 21:20:57;;;;;;;15.93;7.72;;;9.00;99.90;;;;;;7316536;32;20598;-60
2022/03/12 21:25:05;;;;;;;11.10;7.15;;;9.00;99.90;;;;;;7321649;32;20108;-60
2022/03/12 21:29:07;;;;;;;11.38;7.10;;;9.00;99.90;;;;;;7312639;32;20170;-62
2022/03/12 21:33:09;;;;;;;11.63;7.37;;;8.70;99.90;;;;;;7309133;32;20131;-61
2022/03/12 21:37:11;;;;;;;11.05;7.32;;;8.70;99.90;;;;;;7311734;32;20206;-60
2022/03/12 21:41:13;;;;;;;11.50;7.53;;;8.70;99.90;;;;;;7315390;32;20170;-60
2022/03/12 21:45:16;;;;;;;9.75;6.75;;;8.70;99.90;;;;;;7310776;32;20195;-64